Agua Caliente Hot Springs, CA

2:06 AM PDT on August 28, 2014 (GMT -0700)
Pinezanita RV Park & Campgrounds | Change Station
CLOSE
Current Station
Personal Weather Station
Location: Julian, CA
Elevation: 4698 ft
Nearby Weather Stations

Elev 4698 ft 33.04 °N, 116.56 °W | Updated 9 seconds ago

Clear
Clear
64.2 °F
Feels Like 64.2 °F
N
6.9
Wind Variable Wind from West
Gusts 11.0 mph

Today
High -- | Low -- °F
--% Chance of Precip.
Yesterday
High -- | Low -- °F
Precip. -- in
6:18 AM 7:16 PM
Waxing Crescent, 7% visible
Pressure 29.98 in
Visibility -9999.0 miles
Clouds
Dew Point 49 °F
Humidity 57%
Rainfall 0.00 in
Snow Depth Not available.
UV Not available.
Pollen 6.80 out of 12
Air Quality Not available.
Flu Activity Not available.
METAR KCZZ 280852Z AUTO 05005KT 16/07 A3008 RMK AO1 SLP151 T01560067 58001

More Conditions Fewer Conditions

Pressure 29.98 in
Visibility -9999.0 miles
Clouds
Dew Point 49 °F
Humidity 57%
Rainfall 0.00 in
Snow Depth Not available.
UV Not available.
Pollen 6.80 out of 12
Air Quality Not available.
Flu Activity Not available.
METAR KCZZ 280852Z AUTO 05005KT 16/07 A3008 RMK AO1 SLP151 T01560067 58001

More Conditions Fewer Conditions

10-Day Weather Forecast

Almanac

Astronomy

Aug. 28, 2014 Rise Set
Actual Time 6:18 AM PDT 7:16 PM PDT
Civil Twilight 5:52 AM PDT 7:41 PM PDT
Nautical Twilight 5:22 AM PDT 8:11 PM PDT
Astronomical Twilight 4:51 AM PDT 8:42 PM PDT
Moon 9:03 AM PDT 8:55 PM PDT
Length of Visible Light 13h 48m
Length of Day
12h 58m
Tomorrow will be 1m 56s shorter.
Waxing Crescent, 7% of the Moon is Illuminated
Today
Waxing Crescent
Sep 2
First Quarter
Sep 8
Full
Sep 15
Last Quarter
Sep 24
New

Today's Extremes

State Highs State Lows

Community

WunderPhotos

Upload Photos

1,747,918 photos uploaded!

Nearby

Snow Depth

Station Depth Elevation
Leavitt Lake 1 in 9400 ft
Leavitt Meadows 1 in 7200 ft
Summit Meadow 1 in 9122 ft
Monitor Pass 0 in 8350 ft
Blue Lakes 0 in 8000 ft

Earthquake Activity

City Distance Mag. Time & Date
San Fernando, California 135 miles 2.5 4:57 AM PDT
2014-08-26
Progreso, Mexico 58 miles 2.6 10:55 PM PDT
2014-08-25
Maneadero, Mexico 89 miles 2.8 1:03 PM PDT
2014-08-25
Minimum magnitude displayed is 2.5.

Coastal Water Temperatures

Place Temperature
No Stations Reporting

Nearby Weather Stations